Terminal Aerodrome Forecast
Issued by NWS

Home | Current Version | Previous Version | Text Only | Print | Product List | Glossary On
Versions: 1 2 3 4 5 6 7 8 9 10 11 12 13 14 15 16 17 18 19 20 21 22 23
000
FTUS41 KGYX 072320
TAFRKD
TAF
KRKD 072320Z 0800/0824 03004KT P6SM SKC
     FM080300 03010G16KT P6SM SCT150 BKN250
     FM081000 04013G20KT P6SM BKN150 OVC250
     FM081500 04017KT P6SM OVC025
      TEMPO 0815/0818 P6SM -SN OVC015
     FM081800 03017KT 2SM -SN OVC007
      AMD LTD TO CLD VIS AND WIND=

USA.gov is the U.S. government's official web portal to all federal, state and local government web resources and services.